createdAt,value
2019-06-01T00:02:13.777Z,4.30
2019-06-01T00:04:42.895Z,3.80
2019-06-01T00:07:10.611Z,2.70
2019-06-01T00:09:38.992Z,2.57
2019-06-01T00:12:06.515Z,3.20
2019-06-01T00:14:33.991Z,3.20
2019-06-01T00:17:01.384Z,2.97
2019-06-01T00:19:28.779Z,3.47
2019-06-01T00:21:56.409Z,2.70
2019-06-01T00:24:23.803Z,3.07
2019-06-01T00:26:52.080Z,3.40
2019-06-01T00:29:19.711Z,3.03
2019-06-01T00:31:47.882Z,3.20
2019-06-01T00:34:15.408Z,2.90
2019-06-01T00:36:43.531Z,3.40
2019-06-01T00:39:10.973Z,4.27
2019-06-01T00:41:38.381Z,3.33
2019-06-01T00:44:06.223Z,3.60
2019-06-01T00:46:33.615Z,2.60
2019-06-01T00:49:01.019Z,2.53
2019-06-01T00:51:28.445Z,3.40
2019-06-01T00:53:55.840Z,3.33
2019-06-01T00:56:23.235Z,4.10
2019-06-01T00:58:51.852Z,3.83
2019-06-01T01:01:19.488Z,3.80
2019-06-01T01:03:48.200Z,3.67
2019-06-01T01:06:15.619Z,3.10
2019-06-01T01:08:43.015Z,3.53
2019-06-01T01:11:10.403Z,3.03
2019-06-01T01:13:38.028Z,2.60
2019-06-01T01:16:05.527Z,3.30
2019-06-01T01:18:32.915Z,3.80
2019-06-01T01:21:00.379Z,3.90
2019-06-01T01:23:27.781Z,3.60
2019-06-01T01:25:55.174Z,3.80
2019-06-01T01:28:24.018Z,2.77
2019-06-01T01:31:05.129Z,3.30
2019-06-01T01:33:20.950Z,3.40
2019-06-01T01:35:49.592Z,3.70
2019-06-01T01:38:17.173Z,3.53
2019-06-01T01:40:44.572Z,3.40
2019-06-01T01:43:12.075Z,3.80
2019-06-01T01:45:39.487Z,3.53
2019-06-01T01:48:06.891Z,2.40
2019-06-01T01:50:34.319Z,3.80
2019-06-01T01:53:03.184Z,4.57
2019-06-01T01:55:30.828Z,3.00
2019-06-01T01:57:59.415Z,3.50
2019-06-01T02:00:40.477Z,5.60
2019-06-01T02:03:08.395Z,4.50
2019-06-01T02:05:36.363Z,4.53
2019-06-01T02:08:05.341Z,3.93
2019-06-01T02:10:33.035Z,3.63
2019-06-01T02:13:01.827Z,4.07
2019-06-01T02:15:29.632Z,3.50
2019-06-01T02:17:58.172Z,4.13
2019-06-01T02:20:25.731Z,4.20
2019-06-01T02:22:53.123Z,3.23
2019-06-01T02:25:20.570Z,3.23
2019-06-01T02:27:47.966Z,3.53
2019-06-01T02:30:15.855Z,3.40
2019-06-01T02:32:43.429Z,3.70
2019-06-01T02:35:11.636Z,4.73
2019-06-01T02:37:39.025Z,4.13
2019-06-01T02:40:07.944Z,3.73
2019-06-01T02:42:35.335Z,4.20
2019-06-01T02:45:03.652Z,4.20
2019-06-01T02:47:31.493Z,3.77
2019-06-01T02:49:59.423Z,3.90
2019-06-01T02:52:26.913Z,3.33
2019-06-01T02:54:55.549Z,4.10
2019-06-01T02:57:22.999Z,3.40
2019-06-01T02:59:50.393Z,3.40
2019-06-01T03:02:17.946Z,3.63
2019-06-01T03:04:45.673Z,2.77
2019-06-01T03:07:14.684Z,2.27
2019-06-01T03:09:43.651Z,4.40
2019-06-01T03:12:13.256Z,3.50
2019-06-01T03:14:43.396Z,3.60
2019-06-01T03:17:13.715Z,3.70
2019-06-01T03:19:42.927Z,3.80
2019-06-01T03:22:13.943Z,3.30
2019-06-01T03:24:44.779Z,3.40
2019-06-01T03:27:15.087Z,3.30
2019-06-01T03:29:47.506Z,3.70
2019-06-01T03:32:34.170Z,3.90
2019-06-01T03:34:44.097Z,2.90
2019-06-01T03:37:11.527Z,3.03
2019-06-01T03:39:38.929Z,4.00
2019-06-01T03:42:07.993Z,3.37
2019-06-01T03:44:36.099Z,3.80
2019-06-01T03:47:03.787Z,4.10
2019-06-01T03:49:31.376Z,4.00
2019-06-01T03:51:58.811Z,4.53
2019-06-01T03:54:26.500Z,4.67
2019-06-01T03:56:53.895Z,3.90
2019-06-01T03:59:21.363Z,3.90
2019-06-01T04:01:48.742Z,3.70
2019-06-01T04:04:16.383Z,3.27
2019-06-01T04:06:44.244Z,3.70
2019-06-01T04:09:11.882Z,3.60
2019-06-01T04:11:39.339Z,3.10
2019-06-01T04:14:07.724Z,3.90
2019-06-01T04:16:35.227Z,3.93
2019-06-01T04:19:03.718Z,3.33
2019-06-01T04:21:31.472Z,3.53
2019-06-01T04:23:58.871Z,3.40
2019-06-01T04:26:27.068Z,3.17
2019-06-01T04:28:54.509Z,3.60
2019-06-01T04:31:21.909Z,3.17
2019-06-01T04:33:49.299Z,3.20
2019-06-01T04:36:16.763Z,3.60
2019-06-01T04:38:44.153Z,3.27
2019-06-01T04:41:11.985Z,4.20
2019-06-01T04:43:39.723Z,3.60
2019-06-01T04:46:08.200Z,3.47
2019-06-01T04:48:35.711Z,3.37
2019-06-01T04:51:04.518Z,3.20
2019-06-01T04:53:32.079Z,3.17
2019-06-01T04:55:59.468Z,3.70
2019-06-01T04:58:27.092Z,3.73
2019-06-01T05:00:54.495Z,3.57
2019-06-01T05:03:21.893Z,3.63
2019-06-01T05:05:49.340Z,4.03
2019-06-01T05:08:17.364Z,3.60
2019-06-01T05:10:44.748Z,3.87
2019-06-01T05:13:12.196Z,3.53
2019-06-01T05:15:39.620Z,2.97
2019-06-01T05:18:07.969Z,3.80
2019-06-01T05:20:35.923Z,3.23
2019-06-01T05:23:03.309Z,3.30
2019-06-01T05:25:30.703Z,3.60
2019-06-01T05:27:58.427Z,3.30
2019-06-01T05:30:25.801Z,3.30
2019-06-01T05:32:53.238Z,3.40
2019-06-01T05:35:20.691Z,3.23
2019-06-01T05:37:48.091Z,3.40
2019-06-01T05:40:16.557Z,3.47
2019-06-01T05:42:44.183Z,3.20
2019-06-01T05:45:12.936Z,3.00
2019-06-01T05:47:40.379Z,3.20
2019-06-01T05:50:08.515Z,3.97
2019-06-01T05:52:35.908Z,3.27
2019-06-01T05:55:03.334Z,3.10
2019-06-01T05:57:31.156Z,4.03
2019-06-01T05:59:58.547Z,3.47
2019-06-01T06:02:25.959Z,3.70
2019-06-01T06:04:54.241Z,3.47
2019-06-01T06:07:23.064Z,3.20
2019-06-01T06:09:50.527Z,3.90
2019-06-01T06:12:19.356Z,3.30
2019-06-01T06:14:46.931Z,4.20
2019-06-01T06:17:17.075Z,3.53
2019-06-01T06:19:43.901Z,3.50
2019-06-01T06:22:12.003Z,3.43
2019-06-01T06:24:39.691Z,3.50
2019-06-01T06:27:07.305Z,2.93
2019-06-01T06:29:34.695Z,3.50
2019-06-01T06:32:02.155Z,3.30
2019-06-01T06:34:29.688Z,3.23
2019-06-01T06:36:57.097Z,3.27
2019-06-01T06:39:24.491Z,3.10
2019-06-01T06:41:51.967Z,3.00
2019-06-01T06:44:20.520Z,3.63
2019-06-01T06:46:48.052Z,3.20
2019-06-01T06:49:15.494Z,3.40
2019-06-01T06:51:42.902Z,3.07
2019-06-01T06:54:10.309Z,2.80
2019-06-01T06:56:37.881Z,2.90
2019-06-01T06:59:05.291Z,2.93
2019-06-01T07:01:32.699Z,3.13
2019-06-01T07:04:12.134Z,3.50
2019-06-01T07:06:29.802Z,2.93
2019-06-01T07:08:57.391Z,2.77
2019-06-01T07:11:25.345Z,2.33
2019-06-01T07:13:52.908Z,3.27
2019-06-01T07:16:21.364Z,2.40
2019-06-01T07:18:48.974Z,2.50
2019-06-01T07:21:16.374Z,2.90
2019-06-01T07:23:43.820Z,2.43
2019-06-01T07:26:11.423Z,2.73
2019-06-01T07:28:38.837Z,2.63
2019-06-01T07:31:06.219Z,2.70
2019-06-01T07:33:33.675Z,2.60
2019-06-01T07:36:01.090Z,2.60
2019-06-01T07:38:28.957Z,2.90
2019-06-01T07:40:56.607Z,2.40
2019-06-01T07:43:24.734Z,2.90
2019-06-01T07:45:52.227Z,2.30
2019-06-01T07:48:20.858Z,2.30
2019-06-01T07:50:48.388Z,2.67
2019-06-01T07:53:15.807Z,2.17
2019-06-01T07:55:43.283Z,2.73
2019-06-01T07:58:10.712Z,2.40
2019-06-01T08:00:38.123Z,3.43
2019-06-01T08:03:05.563Z,2.60
2019-06-01T08:05:33.192Z,2.63
2019-06-01T08:08:01.699Z,2.80
2019-06-01T08:10:29.684Z,2.33
2019-06-01T08:12:57.151Z,2.50
2019-06-01T08:15:25.671Z,2.20
2019-06-01T08:17:53.332Z,2.30
2019-06-01T08:20:21.929Z,2.27
2019-06-01T08:22:49.370Z,2.53
2019-06-01T08:25:18.294Z,2.07
2019-06-01T08:27:45.953Z,2.17
2019-06-01T08:30:13.860Z,2.03
2019-06-01T08:32:41.323Z,2.60
2019-06-01T08:35:09.795Z,2.10
2019-06-01T08:37:37.311Z,2.10
2019-06-01T08:40:05.108Z,2.57
2019-06-01T08:42:33.650Z,2.23
2019-06-01T08:45:01.123Z,2.07
2019-06-01T08:47:29.887Z,2.40
2019-06-01T08:49:57.539Z,2.27
2019-06-01T08:52:25.945Z,1.97
2019-06-01T08:54:53.547Z,2.20
2019-06-01T08:57:20.955Z,2.20
2019-06-01T08:59:48.453Z,2.10
2019-06-01T09:02:16.364Z,2.60
2019-06-01T09:04:43.763Z,2.23
2019-06-01T09:07:11.519Z,2.50
2019-06-01T09:09:39.780Z,2.10
2019-06-01T09:12:07.180Z,2.43
2019-06-01T09:14:35.595Z,2.70
2019-06-01T09:17:03.187Z,2.20
2019-06-01T09:19:31.534Z,2.10
2019-06-01T09:21:59.051Z,2.30
2019-06-01T09:24:27.682Z,2.37
2019-06-01T09:26:55.244Z,2.03
2019-06-01T09:29:22.661Z,2.87
2019-06-01T09:31:50.105Z,1.97
2019-06-01T09:34:17.515Z,2.10
2019-06-01T09:36:44.927Z,2.27
2019-06-01T09:39:12.601Z,2.17
2019-06-01T09:41:39.995Z,2.20
2019-06-01T09:44:07.388Z,2.30
2019-06-01T09:46:35.647Z,2.30
2019-06-01T09:51:38.917Z,2.17
2019-06-01T09:54:06.574Z,2.00
2019-06-01T09:56:35.665Z,2.10
2019-06-01T09:59:03.383Z,2.17
2019-06-01T10:01:30.821Z,2.40
2019-06-01T10:03:58.236Z,2.20
2019-06-01T10:06:25.868Z,2.30
2019-06-01T10:08:53.275Z,1.90
2019-06-01T10:11:20.684Z,2.10
2019-06-01T10:13:48.209Z,2.10
2019-06-01T10:16:15.631Z,2.07
2019-06-01T10:18:43.196Z,1.63
2019-06-01T10:21:10.957Z,1.90
2019-06-01T10:23:38.544Z,2.20
2019-06-01T10:26:06.093Z,2.00
2019-06-01T10:28:33.674Z,1.90
2019-06-01T10:31:01.059Z,1.60
2019-06-01T10:33:28.467Z,2.10
2019-06-01T10:36:20.542Z,2.03
2019-06-01T10:38:45.016Z,2.37
2019-06-01T10:41:12.430Z,2.30
2019-06-01T10:43:39.879Z,2.23
2019-06-01T10:46:07.293Z,2.20
2019-06-01T10:48:36.008Z,2.03
2019-06-01T10:51:03.924Z,2.20
2019-06-01T10:53:32.042Z,2.10
2019-06-01T10:55:59.759Z,2.00
2019-06-01T10:58:27.215Z,1.50
2019-06-01T11:00:54.632Z,2.10
2019-06-01T11:03:22.043Z,2.50
2019-06-01T11:05:49.527Z,2.10
2019-06-01T11:08:16.954Z,2.00
2019-06-01T11:10:46.007Z,2.23
2019-06-01T11:13:13.451Z,2.10
2019-06-01T11:15:41.230Z,2.10
2019-06-01T11:18:08.719Z,1.83
2019-06-01T11:20:37.247Z,2.23
2019-06-01T11:23:04.831Z,1.80
2019-06-01T11:25:33.369Z,1.90
2019-06-01T11:28:00.963Z,2.07
2019-06-01T11:30:28.369Z,2.30
2019-06-01T11:32:55.779Z,2.23
2019-06-01T11:35:23.368Z,2.20
2019-06-01T11:37:50.942Z,2.30
2019-06-01T11:40:18.541Z,2.00
2019-06-01T11:42:46.169Z,1.93
2019-06-01T11:45:13.669Z,1.80
2019-06-01T11:47:41.101Z,1.60
2019-06-01T11:50:09.979Z,1.70
2019-06-01T11:52:37.396Z,1.80
2019-06-01T11:55:05.363Z,2.33
2019-06-01T11:57:32.848Z,1.90
2019-06-01T12:00:00.278Z,2.03
2019-06-01T12:02:27.679Z,2.30
2019-06-01T12:04:55.379Z,2.10
2019-06-01T12:07:22.784Z,2.50
2019-06-01T12:09:50.191Z,1.70
2019-06-01T12:12:17.737Z,1.60
2019-06-01T12:14:46.802Z,1.83
2019-06-01T12:17:14.305Z,2.00
2019-06-01T12:19:42.716Z,1.77
2019-06-01T12:22:10.163Z,2.00
2019-06-01T12:24:38.770Z,1.70
2019-06-01T12:27:06.342Z,2.20
2019-06-01T12:29:33.755Z,1.93
2019-06-01T12:32:01.175Z,2.20
2019-06-01T12:34:28.643Z,1.90
2019-06-01T12:36:56.501Z,2.17
2019-06-01T12:39:24.195Z,2.10
2019-06-01T12:41:51.889Z,2.00
2019-06-01T12:44:19.302Z,1.90
2019-06-01T12:46:47.012Z,1.90
2019-06-01T12:49:14.685Z,1.90
2019-06-01T12:51:42.513Z,2.03
2019-06-01T12:54:10.131Z,2.10
2019-06-01T12:56:37.623Z,2.10
2019-06-01T12:59:04.989Z,2.30
2019-06-01T13:01:32.439Z,2.27
2019-06-01T13:04:00.295Z,2.13
2019-06-01T13:06:27.691Z,2.23
2019-06-01T13:08:55.101Z,2.20
2019-06-01T13:11:23.003Z,2.20
2019-06-01T13:13:51.410Z,2.40
2019-06-01T13:16:19.033Z,2.40
2019-06-01T13:18:47.234Z,2.20
2019-06-01T13:21:14.731Z,2.10
2019-06-01T13:23:43.321Z,2.20
2019-06-01T13:26:10.882Z,2.20
2019-06-01T13:28:38.537Z,1.93
2019-06-01T13:31:06.017Z,2.10
2019-06-01T13:33:33.635Z,2.00
2019-06-01T13:36:01.043Z,2.30
2019-06-01T13:38:28.717Z,2.57
2019-06-01T13:40:56.542Z,2.70
2019-06-01T13:43:23.962Z,2.23
2019-06-01T13:45:53.623Z,2.40
2019-06-01T13:48:21.718Z,2.23
2019-06-01T13:50:49.843Z,3.03
2019-06-01T13:53:17.324Z,2.63
2019-06-01T13:55:45.971Z,2.50
2019-06-01T13:58:13.476Z,2.33
2019-06-01T14:00:40.895Z,2.10
2019-06-01T14:03:08.348Z,2.17
2019-06-01T14:05:36.847Z,2.40
2019-06-01T14:08:04.284Z,2.30
2019-06-01T14:10:32.872Z,2.33
2019-06-01T14:13:00.363Z,2.10
2019-06-01T14:15:27.793Z,2.00
2019-06-01T14:17:56.360Z,1.97
2019-06-01T14:20:23.941Z,2.00
2019-06-01T14:22:51.967Z,1.60
2019-06-01T14:25:19.660Z,2.27
2019-06-01T14:27:48.143Z,2.20
2019-06-01T14:30:16.370Z,2.17
2019-06-01T14:32:43.839Z,1.77
2019-06-01T14:35:11.410Z,2.20
2019-06-01T14:37:39.036Z,1.95
2019-06-01T14:40:07.504Z,2.10
2019-06-01T14:42:34.995Z,2.00
2019-06-01T14:45:02.398Z,2.10
2019-06-01T14:47:30.095Z,1.87
2019-06-01T14:49:57.760Z,2.10
2019-06-01T14:52:25.268Z,2.10
2019-06-01T14:54:53.765Z,2.30
2019-06-01T14:57:21.441Z,2.20
2019-06-01T14:59:50.355Z,2.07
2019-06-01T15:02:18.139Z,2.37
2019-06-01T15:04:45.593Z,2.30
2019-06-01T15:07:12.946Z,2.27
2019-06-01T15:09:40.691Z,2.00
2019-06-01T15:12:08.091Z,2.30
2019-06-01T15:14:35.518Z,2.20
2019-06-01T15:17:03.051Z,1.90
2019-06-01T15:19:30.459Z,2.50
2019-06-01T15:21:58.239Z,2.30
2019-06-01T15:24:25.763Z,2.87
2019-06-01T15:26:54.532Z,2.57
2019-06-01T15:29:22.115Z,2.30
2019-06-01T15:31:50.989Z,2.70
2019-06-01T15:34:18.677Z,2.77
2019-06-01T15:36:46.152Z,2.70
2019-06-01T15:39:24.155Z,2.67
2019-06-01T15:41:43.344Z,2.93
2019-06-01T15:44:10.751Z,2.90
2019-06-01T15:46:38.165Z,2.90
2019-06-01T15:49:05.648Z,2.53
2019-06-01T15:51:33.195Z,2.50
2019-06-01T15:54:01.095Z,2.87
2019-06-01T15:56:28.587Z,2.40
2019-06-01T15:58:58.120Z,2.60
2019-06-01T16:01:25.187Z,2.60
2019-06-01T16:03:53.187Z,2.40
2019-06-01T16:06:20.899Z,2.37
2019-06-01T16:08:48.315Z,2.50
2019-06-01T16:11:15.773Z,2.80
2019-06-01T16:13:43.175Z,2.50
2019-06-01T16:16:10.619Z,2.70
2019-06-01T16:18:38.175Z,2.60
2019-06-01T16:21:05.580Z,2.90
2019-06-01T16:23:48.712Z,2.70
2019-06-01T16:26:15.387Z,3.03
2019-06-01T16:28:33.472Z,2.90
2019-06-01T16:31:00.897Z,2.70
2019-06-01T16:33:28.552Z,2.40
2019-06-01T16:35:56.897Z,2.70
2019-06-01T16:38:24.383Z,2.43
2019-06-01T16:40:51.839Z,2.53
2019-06-01T16:43:19.875Z,2.73
2019-06-01T16:45:48.389Z,2.60
2019-06-01T16:48:15.847Z,2.27
2019-06-01T16:50:43.259Z,2.40
2019-06-01T16:53:10.677Z,2.20
2019-06-01T16:55:38.126Z,2.40
2019-06-01T16:58:06.807Z,2.27
2019-06-01T17:00:34.240Z,2.30
2019-06-01T17:03:02.643Z,2.50
2019-06-01T17:05:30.203Z,2.67
2019-06-01T17:07:58.720Z,2.00
2019-06-01T17:10:26.942Z,2.27
2019-06-01T17:12:54.371Z,2.10
2019-06-01T17:15:21.858Z,2.10
2019-06-01T17:17:49.319Z,2.40
2019-06-01T17:20:48.518Z,2.13
2019-06-01T17:23:27.056Z,2.10
2019-06-01T17:25:47.566Z,2.33
2019-06-01T17:28:15.866Z,2.27
2019-06-01T17:30:43.311Z,2.17
2019-06-01T17:33:10.711Z,2.43
2019-06-01T17:35:38.128Z,2.40
2019-06-01T17:38:07.051Z,2.37
2019-06-01T17:40:38.398Z,2.33
2019-06-01T17:43:04.766Z,2.53
2019-06-01T17:45:32.277Z,2.40
2019-06-01T17:48:15.900Z,2.30
2019-06-01T17:50:29.237Z,2.47
2019-06-01T17:52:56.657Z,2.60
2019-06-01T17:55:32.576Z,2.40
2019-06-01T17:58:01.540Z,2.90
2019-06-01T18:00:29.107Z,2.93
2019-06-01T18:02:56.872Z,3.07
2019-06-01T18:05:24.984Z,2.77
2019-06-01T18:07:52.405Z,3.60
2019-06-01T18:10:21.067Z,3.70
2019-06-01T18:13:33.652Z,4.20
2019-06-01T18:16:03.030Z,4.03
2019-06-01T18:18:30.334Z,4.10
2019-06-01T18:20:57.736Z,3.67
2019-06-01T18:23:25.212Z,3.40
2019-06-01T18:25:52.628Z,3.40
2019-06-01T18:28:20.403Z,4.60
2019-06-01T18:30:49.591Z,3.27
2019-06-01T18:33:17.025Z,3.30
2019-06-01T18:35:44.470Z,3.37
2019-06-01T18:38:13.059Z,3.27
2019-06-01T18:40:41.329Z,3.63
2019-06-01T18:43:14.008Z,3.70
2019-06-01T18:45:42.436Z,3.33
2019-06-01T18:48:10.267Z,3.67
2019-06-01T18:50:37.792Z,2.90
2019-06-01T18:53:06.109Z,3.03
2019-06-01T18:55:35.709Z,3.70
2019-06-01T18:58:03.970Z,3.40
2019-06-01T19:00:31.537Z,8.23
2019-06-01T19:02:59.076Z,6.97
2019-06-01T19:05:26.517Z,5.80
2019-06-01T19:07:55.802Z,4.63
2019-06-01T19:10:23.406Z,5.03
2019-06-01T19:12:52.150Z,5.30
2019-06-01T19:15:28.276Z,4.57
2019-06-01T19:17:49.909Z,3.87
2019-06-01T19:20:18.297Z,4.27
2019-06-01T19:22:45.733Z,4.37
2019-06-01T19:25:14.979Z,4.80
2019-06-01T19:27:42.641Z,5.50
2019-06-01T19:30:10.825Z,7.73
2019-06-01T19:32:38.503Z,5.07
2019-06-01T19:35:07.589Z,5.60
2019-06-01T19:37:38.464Z,7.27
2019-06-01T19:40:07.102Z,7.70
2019-06-01T19:42:34.545Z,23.37
2019-06-01T19:45:02.546Z,30.73
2019-06-01T19:47:30.187Z,29.20
2019-06-01T19:49:58.091Z,29.43
2019-06-01T19:52:25.510Z,22.60
2019-06-01T19:54:53.035Z,17.77
2019-06-01T19:57:22.677Z,17.73
2019-06-01T19:59:49.690Z,18.97
2019-06-01T20:02:29.620Z,17.23
2019-06-01T20:04:46.469Z,13.37
2019-06-01T20:07:15.151Z,13.40
2019-06-01T20:09:42.654Z,13.13
2019-06-01T20:12:14.533Z,12.23
2019-06-01T20:14:39.918Z,9.77
2019-06-01T20:17:07.342Z,8.70
2019-06-01T20:19:34.923Z,9.37
2019-06-01T20:22:02.776Z,8.60
2019-06-01T20:24:30.169Z,10.87
2019-06-01T20:26:57.648Z,10.97
2019-06-01T20:29:25.063Z,9.53
2019-06-01T20:31:52.508Z,6.80
2019-06-01T20:34:20.088Z,6.00
2019-06-01T20:36:47.583Z,5.20
2019-06-01T20:39:16.224Z,5.17
2019-06-01T20:41:43.867Z,6.27
2019-06-01T20:44:12.520Z,6.50
2019-06-01T20:46:40.043Z,5.77
2019-06-01T20:49:07.740Z,6.63
2019-06-01T20:51:35.410Z,5.90
2019-06-01T20:54:02.794Z,7.50
2019-06-01T20:56:30.238Z,7.00
2019-06-01T20:58:57.646Z,7.40
2019-06-01T21:01:25.062Z,7.80
2019-06-01T21:03:52.507Z,8.30
2019-06-01T21:06:20.870Z,6.70
2019-06-01T21:08:49.129Z,7.53
2019-06-01T21:11:17.882Z,6.73
2019-06-01T21:13:45.662Z,6.00
2019-06-01T21:16:14.084Z,5.87
2019-06-01T21:18:41.567Z,6.30
2019-06-01T21:21:09.072Z,5.80
2019-06-01T21:23:36.498Z,6.90
2019-06-01T21:26:04.169Z,7.83
2019-06-01T21:28:31.586Z,6.70
2019-06-01T21:30:59.003Z,6.03
2019-06-01T21:33:28.494Z,5.63
2019-06-01T21:35:55.698Z,5.23
2019-06-01T21:38:23.662Z,5.57
2019-06-01T21:40:51.346Z,5.20
2019-06-01T21:43:25.065Z,5.40
2019-06-01T21:45:47.958Z,5.00
2019-06-01T21:48:15.633Z,4.40
2019-06-01T21:50:43.053Z,5.13
2019-06-01T21:53:10.469Z,4.40
2019-06-01T21:55:37.909Z,4.20
2019-06-01T21:58:05.325Z,4.27
2019-06-01T22:00:36.595Z,4.37
2019-06-01T22:03:04.738Z,4.50
2019-06-01T22:05:32.132Z,5.20
2019-06-01T22:07:59.543Z,3.90
2019-06-01T22:10:27.794Z,4.50
2019-06-01T22:12:55.519Z,4.30
2019-06-01T22:15:23.859Z,4.20
2019-06-01T22:17:51.433Z,4.00
2019-06-01T22:20:19.916Z,4.20
2019-06-01T22:22:47.458Z,3.90
2019-06-01T22:25:15.127Z,4.17
2019-06-01T22:27:42.519Z,4.43
2019-06-01T22:30:10.016Z,4.67
2019-06-01T22:32:37.656Z,3.47
2019-06-01T22:35:05.160Z,3.70
2019-06-01T22:37:32.520Z,3.47
2019-06-01T22:40:00.208Z,3.63
2019-06-01T22:42:29.402Z,4.37
2019-06-01T22:44:56.816Z,4.17
2019-06-01T22:47:24.518Z,4.67
2019-06-01T22:49:51.954Z,5.60
2019-06-01T22:52:19.358Z,5.00
2019-06-01T22:54:46.794Z,3.97
2019-06-01T22:57:14.190Z,5.20
2019-06-01T22:59:41.671Z,5.00
2019-06-01T23:02:09.110Z,4.50
2019-06-01T23:04:36.508Z,4.60
2019-06-01T23:07:03.910Z,3.77
2019-06-01T23:09:31.652Z,4.67
2019-06-01T23:11:59.141Z,5.03
2019-06-01T23:14:27.386Z,4.30
2019-06-01T23:16:55.617Z,4.27
2019-06-01T23:19:23.767Z,4.60
2019-06-01T23:21:51.286Z,4.00
2019-06-01T23:24:18.969Z,4.27
2019-06-01T23:26:46.343Z,5.20
2019-06-01T23:29:13.730Z,5.97
2019-06-01T23:31:41.618Z,5.40
2019-06-01T23:34:09.014Z,5.20
2019-06-01T23:36:36.414Z,4.60
2019-06-01T23:39:05.462Z,4.23
2019-06-01T23:41:32.967Z,4.50
2019-06-01T23:44:11.015Z,4.03
2019-06-01T23:46:30.998Z,3.93
2019-06-01T23:48:58.573Z,5.50
2019-06-01T23:51:27.283Z,4.70
2019-06-01T23:53:54.829Z,4.40
2019-06-01T23:56:23.517Z,3.60
2019-06-01T23:58:51.042Z,4.10
